Time;durP1;ratioP1;P1;durP2;ratioP2;P2;SDS_P1;SDS_P2;PMS_P1;PMS_P2;Temp;Humidity;BMP_temperature;BMP_pressure;BME280_temperature;BME280_humidity;BME280_pressure;Samples;Min_cycle;Max_cycle;Signal;HPM_P1;HPM_P2
2023/04/25 00:01:53;;;;;;;4.47;3.37;;;;;;;;;;5015182;28;20839;-59
2023/04/25 00:04:21;;;;;;;3.67;3.17;;;;;;;;;;5016132;28;20447;-58
2023/04/25 00:06:49;;;;;;;4.80;3.27;;;;;;;;;;5016093;28;20555;-58
2023/04/25 00:09:15;;;;;;;3.33;3.10;;;;;;;;;;5016012;28;20474;-58
2023/04/25 00:11:41;;;;;;;3.03;2.83;;;;;;;;;;5014700;28;20807;-58
2023/04/25 00:14:10;;;;;;;3.60;2.63;;;;;;;;;;5016017;28;20409;-58
2023/04/25 00:16:36;;;;;;;3.30;3.20;;;;;;;;;;5015869;28;20421;-58
2023/04/25 00:19:04;;;;;;;4.43;2.87;;;;;;;;;;5015960;28;20756;-58
2023/04/25 00:21:32;;;;;;;3.43;3.00;;;;;;;;;;5015963;28;20759;-58
2023/04/25 00:23:59;;;;;;;4.53;3.40;;;;;;;;;;5015620;28;20426;-58
2023/04/25 00:26:25;;;;;;;10.17;3.43;;;;;;;;;;5015527;28;20475;-58
2023/04/25 00:28:51;;;;;;;4.00;3.10;;;;;;;;;;5015620;28;20430;-58
2023/04/25 00:31:17;;;;;;;3.10;2.83;;;;;;;;;;5015683;28;20436;-58
2023/04/25 00:33:43;;;;;;;3.20;2.90;;;;;;;;;;5015478;28;20409;-58
2023/04/25 00:36:09;;;;;;;6.10;3.60;;;;;;;;;;5015497;28;20423;-58
2023/04/25 00:38:35;;;;;;;5.07;3.40;;;;;;;;;;4998021;28;20515;-58
2023/04/25 00:41:01;;;;;;;3.40;3.10;;;;;;;;;;5015720;28;20779;-58
2023/04/25 00:43:28;;;;;;;4.80;3.10;;;;;;;;;;5015827;28;20405;-58
2023/04/25 00:45:54;;;;;;;4.37;3.53;;;;;;;;;;5015553;28;20463;-58
2023/04/25 00:48:22;;;;;;;4.33;3.53;;;;;;;;;;5014354;28;20419;-58
2023/04/25 00:50:52;;;;;;;4.27;3.87;;;;;;;;;;5015508;28;20440;-57
2023/04/25 00:53:19;;;;;;;8.63;3.50;;;;;;;;;;5015491;28;20436;-58
2023/04/25 00:55:45;;;;;;;6.00;3.80;;;;;;;;;;5014095;28;20443;-58
2023/04/25 00:58:11;;;;;;;4.33;3.73;;;;;;;;;;5015503;28;20898;-58
2023/04/25 01:00:40;;;;;;;5.40;3.57;;;;;;;;;;5015401;28;20428;-58
2023/04/25 01:03:06;;;;;;;4.40;4.00;;;;;;;;;;5015302;28;20436;-58
2023/04/25 01:05:32;;;;;;;4.57;3.97;;;;;;;;;;5015366;28;20420;-58
2023/04/25 01:08:01;;;;;;;6.40;3.83;;;;;;;;;;5015218;28;20483;-57
2023/04/25 01:10:29;;;;;;;4.50;3.70;;;;;;;;;;5015353;28;20428;-57
2023/04/25 01:12:55;;;;;;;8.47;5.60;;;;;;;;;;5014987;28;20433;-57
2023/04/25 01:15:24;;;;;;;8.10;4.37;;;;;;;;;;5015138;28;20409;-59
2023/04/25 01:17:50;;;;;;;4.33;4.10;;;;;;;;;;5015295;28;20422;-58
2023/04/25 01:20:16;;;;;;;5.90;4.03;;;;;;;;;;5015536;28;20423;-57
2023/04/25 01:22:43;;;;;;;5.30;4.00;;;;;;;;;;5015088;28;20540;-58
2023/04/25 01:25:10;;;;;;;4.43;4.10;;;;;;;;;;5015067;28;20509;-57
2023/04/25 01:27:36;;;;;;;6.60;4.37;;;;;;;;;;5014716;28;20526;-58
2023/04/25 01:30:03;;;;;;;5.63;4.20;;;;;;;;;;5014859;28;20495;-58
2023/04/25 01:32:31;;;;;;;5.83;4.13;;;;;;;;;;5014593;28;20448;-58
2023/04/25 01:34:57;;;;;;;4.60;4.23;;;;;;;;;;5014807;28;20408;-58
2023/04/25 01:37:23;;;;;;;4.47;4.17;;;;;;;;;;5014721;28;20935;-58
2023/04/25 01:39:50;;;;;;;12.37;5.97;;;;;;;;;;5014660;28;20547;-58
2023/04/25 01:42:16;;;;;;;6.77;5.10;;;;;;;;;;5014648;28;20417;-57
2023/04/25 01:44:42;;;;;;;7.30;4.87;;;;;;;;;;5014506;28;20482;-58
2023/04/25 01:47:08;;;;;;;7.47;5.13;;;;;;;;;;5014581;28;20531;-56
2023/04/25 01:49:34;;;;;;;7.73;5.30;;;;;;;;;;5014697;28;21020;-58
2023/04/25 01:52:02;;;;;;;5.97;4.43;;;;;;;;;;5013929;28;20447;-56
2023/04/25 01:54:28;;;;;;;4.77;4.30;;;;;;;;;;5014626;28;20955;-58
2023/04/25 01:56:57;;;;;;;6.37;5.43;;;;;;;;;;5014076;28;20567;-58
2023/04/25 01:59:23;;;;;;;7.03;4.00;;;;;;;;;;5014054;28;20428;-58
2023/04/25 02:01:54;;;;;;;4.00;3.60;;;;;;;;;;5012802;28;20803;-58
2023/04/25 02:04:20;;;;;;;4.50;4.20;;;;;;;;;;5014225;28;20781;-57
2023/04/25 02:06:46;;;;;;;15.27;4.63;;;;;;;;;;5014125;28;20560;-57
2023/04/25 02:09:12;;;;;;;4.70;4.27;;;;;;;;;;5014090;28;20429;-57
2023/04/25 02:11:40;;;;;;;13.93;5.77;;;;;;;;;;5013987;28;20410;-57
2023/04/25 02:14:09;;;;;;;4.37;3.83;;;;;;;;;;5013858;28;20409;-57
2023/04/25 02:16:39;;;;;;;12.40;4.67;;;;;;;;;;5013845;28;20412;-57
2023/04/25 02:19:05;;;;;;;4.53;4.20;;;;;;;;;;5013711;28;20438;-57
2023/04/25 02:21:35;;;;;;;4.70;4.30;;;;;;;;;;5013773;28;20413;-57
2023/04/25 02:24:01;;;;;;;4.37;4.07;;;;;;;;;;5013836;28;20436;-57
2023/04/25 02:26:27;;;;;;;5.80;4.07;;;;;;;;;;5013643;28;20465;-58
2023/04/25 02:28:53;;;;;;;7.87;4.17;;;;;;;;;;5013666;28;20447;-57
2023/04/25 02:31:19;;;;;;;7.80;4.20;;;;;;;;;;5013790;28;20409;-58
2023/04/25 02:33:45;;;;;;;12.40;4.80;;;;;;;;;;5012456;28;20456;-58
2023/04/25 02:36:11;;;;;;;7.13;4.30;;;;;;;;;;5013557;28;20904;-58
2023/04/25 02:38:37;;;;;;;4.50;3.97;;;;;;;;;;5013541;28;20526;-58
2023/04/25 02:41:03;;;;;;;6.10;4.33;;;;;;;;;;5013301;28;20477;-58
2023/04/25 02:43:32;;;;;;;7.00;4.30;;;;;;;;;;5013510;28;21005;-57
2023/04/25 02:45:57;;;;;;;5.63;3.93;;;;;;;;;;5013304;28;20956;-58
2023/04/25 02:48:23;;;;;;;4.50;4.10;;;;;;;;;;5012342;28;20555;-56
2023/04/25 02:50:49;;;;;;;5.50;4.70;;;;;;;;;;5013363;28;20429;-58
2023/04/25 02:53:15;;;;;;;7.23;4.20;;;;;;;;;;5013343;28;20496;-58
2023/04/25 02:55:44;;;;;;;9.73;4.03;;;;;;;;;;5013242;28;20903;-57
2023/04/25 02:58:10;;;;;;;9.50;4.60;;;;;;;;;;5013181;28;20944;-57
2023/04/25 03:00:36;;;;;;;4.30;3.77;;;;;;;;;;5013433;28;20828;-58
2023/04/25 03:03:04;;;;;;;6.00;3.67;;;;;;;;;;5011973;28;20492;-56
2023/04/25 03:05:32;;;;;;;5.30;4.03;;;;;;;;;;5013173;28;20417;-58
2023/04/25 03:07:58;;;;;;;11.83;4.50;;;;;;;;;;5012951;28;20526;-57
2023/04/25 03:10:24;;;;;;;8.73;4.40;;;;;;;;;;5012566;28;20413;-58
2023/04/25 03:12:50;;;;;;;5.93;4.03;;;;;;;;;;5012592;28;20405;-57
2023/04/25 03:15:16;;;;;;;4.53;4.10;;;;;;;;;;5012879;28;20447;-57
2023/04/25 03:17:42;;;;;;;4.27;3.60;;;;;;;;;;5011983;28;20413;-58
2023/04/25 03:20:08;;;;;;;5.27;4.03;;;;;;;;;;5011566;28;20419;-58
2023/04/25 03:22:34;;;;;;;4.27;3.97;;;;;;;;;;5012993;28;20452;-57
2023/04/25 03:25:03;;;;;;;8.47;4.50;;;;;;;;;;5012764;28;20564;-58
2023/04/25 03:27:29;;;;;;;6.57;4.13;;;;;;;;;;5012843;28;20791;-58
2023/04/25 03:29:58;;;;;;;8.33;3.70;;;;;;;;;;5012842;28;20431;-58
2023/04/25 03:32:26;;;;;;;7.13;4.43;;;;;;;;;;5012894;28;20397;-58
2023/04/25 03:34:55;;;;;;;3.97;3.83;;;;;;;;;;5012829;28;20486;-58
2023/04/25 03:37:23;;;;;;;9.57;4.13;;;;;;;;;;5012763;28;20459;-58
2023/04/25 03:39:49;;;;;;;3.53;3.33;;;;;;;;;;5011799;28;20417;-58
2023/04/25 03:42:15;;;;;;;4.30;4.10;;;;;;;;;;5012666;28;20931;-57
2023/04/25 03:44:43;;;;;;;4.00;3.80;;;;;;;;;;5012747;28;20452;-57
2023/04/25 03:47:09;;;;;;;4.00;3.70;;;;;;;;;;5012640;28;20464;-58
2023/04/25 03:49:36;;;;;;;6.00;3.80;;;;;;;;;;5012742;28;20432;-57
2023/04/25 03:52:02;;;;;;;4.97;3.33;;;;;;;;;;5012756;28;20412;-58
2023/04/25 03:54:28;;;;;;;3.93;3.63;;;;;;;;;;5012527;28;20413;-57
2023/04/25 03:56:54;;;;;;;4.50;3.97;;;;;;;;;;5012590;28;20483;-58
2023/04/25 03:59:20;;;;;;;4.70;3.63;;;;;;;;;;5012457;28;20424;-58
2023/04/25 04:01:46;;;;;;;4.63;4.23;;;;;;;;;;5012504;28;20523;-57
2023/04/25 04:04:12;;;;;;;6.73;3.93;;;;;;;;;;5012536;28;20436;-58
2023/04/25 04:06:38;;;;;;;10.87;3.90;;;;;;;;;;5012378;28;20467;-57
2023/04/25 04:09:05;;;;;;;4.17;3.80;;;;;;;;;;5012562;28;20474;-57
2023/04/25 04:11:32;;;;;;;3.70;3.60;;;;;;;;;;5012599;28;20794;-58
2023/04/25 04:13:58;;;;;;;5.50;4.23;;;;;;;;;;5012516;28;20518;-57
2023/04/25 04:16:24;;;;;;;5.20;4.00;;;;;;;;;;5012326;28;20412;-57
2023/04/25 04:18:50;;;;;;;4.17;3.70;;;;;;;;;;5012374;28;20444;-57
2023/04/25 04:21:16;;;;;;;11.27;5.10;;;;;;;;;;5012534;28;20397;-57
2023/04/25 04:23:42;;;;;;;14.83;13.27;;;;;;;;;;5015234;28;20881;-57
2023/04/25 04:26:08;;;;;;;18.60;8.93;;;;;;;;;;5014915;28;20483;-59
2023/04/25 04:28:35;;;;;;;6.33;4.60;;;;;;;;;;5016116;28;20455;-59
2023/04/25 04:31:02;;;;;;;28.37;18.43;;;;;;;;;;5016050;28;20421;-57
2023/04/25 04:33:34;;;;;;;17.43;10.30;;;;;;;;;;5015885;28;20915;-57
2023/04/25 04:36:00;;;;;;;7.90;3.53;;;;;;;;;;5015995;28;20455;-58
2023/04/25 04:38:26;;;;;;;9.07;4.90;;;;;;;;;;5015712;28;20546;-58
2023/04/25 04:40:53;;;;;;;10.13;4.50;;;;;;;;;;5015662;28;20535;-58
2023/04/25 04:43:19;;;;;;;4.27;4.00;;;;;;;;;;5015629;28;20436;-58
2023/04/25 04:45:45;;;;;;;4.77;4.37;;;;;;;;;;5015573;28;20789;-58
2023/04/25 04:48:13;;;;;;;5.83;3.80;;;;;;;;;;5015609;28;20471;-58
2023/04/25 04:50:40;;;;;;;7.27;4.50;;;;;;;;;;5015645;28;20437;-58
2023/04/25 04:53:08;;;;;;;4.63;3.80;;;;;;;;;;5015354;28;20409;-58
2023/04/25 04:55:36;;;;;;;4.80;4.10;;;;;;;;;;5015395;28;20942;-58
2023/04/25 04:58:02;;;;;;;49.27;13.83;;;;;;;;;;5015473;28;20928;-58
2023/04/25 05:00:29;;;;;;;5.87;5.30;;;;;;;;;;5015235;28;20463;-58
2023/04/25 05:02:55;;;;;;;9.83;5.00;;;;;;;;;;5015257;28;20423;-58
2023/04/25 05:05:21;;;;;;;4.67;4.30;;;;;;;;;;5015314;28;20447;-58
2023/04/25 05:07:47;;;;;;;4.80;4.13;;;;;;;;;;5015087;28;20468;-58
2023/04/25 05:10:16;;;;;;;5.83;4.37;;;;;;;;;;5015331;28;20487;-58
2023/04/25 05:12:42;;;;;;;5.47;4.53;;;;;;;;;;5015123;28;20479;-58
2023/04/25 05:15:08;;;;;;;4.90;4.30;;;;;;;;;;5015076;28;20440;-58
2023/04/25 05:17:37;;;;;;;7.17;5.27;;;;;;;;;;5014981;28;20418;-58
2023/04/25 05:20:05;;;;;;;7.77;4.50;;;;;;;;;;5014551;28;20472;-58
2023/04/25 05:22:31;;;;;;;11.60;5.50;;;;;;;;;;5014968;28;20760;-58
2023/04/25 05:24:57;;;;;;;8.10;4.87;;;;;;;;;;5014644;28;20527;-58
2023/04/25 05:27:23;;;;;;;4.93;4.50;;;;;;;;;;5014919;28;20525;-58
2023/04/25 05:29:49;;;;;;;5.63;5.00;;;;;;;;;;5014821;28;20444;-57
2023/04/25 05:32:17;;;;;;;6.77;4.37;;;;;;;;;;5014573;28;20807;-57
2023/04/25 05:34:44;;;;;;;6.13;4.73;;;;;;;;;;5013979;28;20413;-56
2023/04/25 05:37:10;;;;;;;5.90;4.80;;;;;;;;;;5014627;28;20431;-57
2023/04/25 05:39:36;;;;;;;7.43;5.60;;;;;;;;;;5014331;28;20811;-58
2023/04/25 05:42:03;;;;;;;7.33;6.23;;;;;;;;;;5014545;28;20456;-57
2023/04/25 05:44:32;;;;;;;5.90;5.40;;;;;;;;;;5014534;28;20419;-57
2023/04/25 05:47:04;;;;;;;5.73;5.20;;;;;;;;;;5014254;28;20884;-56
2023/04/25 05:49:30;;;;;;;7.20;5.10;;;;;;;;;;5014482;28;20448;-57
2023/04/25 05:51:56;;;;;;;7.40;4.93;;;;;;;;;;5014522;28;20413;-57
2023/04/25 05:54:22;;;;;;;7.90;4.60;;;;;;;;;;5013851;28;20445;-57
2023/04/25 05:56:48;;;;;;;4.00;3.80;;;;;;;;;;5013925;28;20455;-57
2023/04/25 05:59:13;;;;;;;3.43;3.33;;;;;;;;;;5012819;28;20424;-57
2023/04/25 06:01:40;;;;;;;3.43;3.23;;;;;;;;;;5014081;28;20463;-59
2023/04/25 06:04:06;;;;;;;2.20;2.10;;;;;;;;;;5025558;28;20438;-59
2023/04/25 06:06:34;;;;;;;2.80;2.70;;;;;;;;;;5033607;28;20558;-57
2023/04/25 06:09:00;;;;;;;2.37;2.20;;;;;;;;;;5033628;28;20408;-57
2023/04/25 06:11:26;;;;;;;2.33;2.07;;;;;;;;;;5033595;28;20437;-58
2023/04/25 06:13:52;;;;;;;2.07;2.00;;;;;;;;;;5033696;28;20879;-58
2023/04/25 06:16:18;;;;;;;3.10;2.60;;;;;;;;;;5033428;28;20411;-58
2023/04/25 06:18:44;;;;;;;2.50;1.93;;;;;;;;;;5033645;28;20921;-58
2023/04/25 06:21:10;;;;;;;1.87;1.77;;;;;;;;;;5033412;28;20435;-58
2023/04/25 06:23:36;;;;;;;1.97;1.80;;;;;;;;;;5033343;28;20960;-57
2023/04/25 06:26:03;;;;;;;2.90;2.70;;;;;;;;;;5031981;28;20780;-58
2023/04/25 06:28:29;;;;;;;4.73;2.77;;;;;;;;;;5033323;28;20394;-58
2023/04/25 06:30:57;;;;;;;2.40;2.30;;;;;;;;;;5033223;28;20402;-58
2023/04/25 06:33:26;;;;;;;3.20;2.33;;;;;;;;;;5033138;28;20420;-58
2023/04/25 06:35:52;;;;;;;2.63;2.53;;;;;;;;;;5033156;28;20880;-58
2023/04/25 06:38:18;;;;;;;2.63;2.43;;;;;;;;;;5033335;28;20398;-58
2023/04/25 06:40:47;;;;;;;2.83;2.73;;;;;;;;;;5033132;28;20439;-58
2023/04/25 06:43:15;;;;;;;3.03;2.83;;;;;;;;;;5033081;28;20416;-58
2023/04/25 06:45:44;;;;;;;5.50;3.20;;;;;;;;;;5032997;28;20444;-58
2023/04/25 06:48:10;;;;;;;3.40;3.20;;;;;;;;;;5032870;28;20525;-58
2023/04/25 06:50:38;;;;;;;3.40;3.20;;;;;;;;;;5032910;28;20436;-58
2023/04/25 06:53:14;;;;;;;3.27;3.17;;;;;;;;;;5032757;28;20456;-58
2023/04/25 06:55:42;;;;;;;3.07;2.87;;;;;;;;;;5032741;28;20486;-58
2023/04/25 06:58:08;;;;;;;3.73;3.53;;;;;;;;;;5032849;28;20415;-58
2023/04/25 07:00:34;;;;;;;10.80;4.87;;;;;;;;;;5031507;28;20758;-58
2023/04/25 07:03:00;;;;;;;3.73;3.43;;;;;;;;;;5032900;28;20447;-57
2023/04/25 07:05:26;;;;;;;4.33;3.93;;;;;;;;;;5032596;28;20903;-58
2023/04/25 07:07:57;;;;;;;7.93;3.30;;;;;;;;;;5032681;28;20820;-58
2023/04/25 07:10:23;;;;;;;3.73;3.53;;;;;;;;;;5031421;28;20482;-58
2023/04/25 07:12:51;;;;;;;4.43;4.07;;;;;;;;;;5032600;28;20416;-58
2023/04/25 07:15:17;;;;;;;3.73;3.43;;;;;;;;;;5032624;28;20469;-58
2023/04/25 07:17:45;;;;;;;4.43;4.00;;;;;;;;;;5032655;28;20419;-58
2023/04/25 07:20:12;;;;;;;6.90;3.77;;;;;;;;;;5032574;28;20408;-58
2023/04/25 07:22:38;;;;;;;5.20;3.20;;;;;;;;;;5032629;28;20810;-58
2023/04/25 07:25:04;;;;;;;4.10;3.10;;;;;;;;;;5031529;28;20419;-57
2023/04/25 07:27:30;;;;;;;3.63;3.40;;;;;;;;;;5032454;28;20467;-59
2023/04/25 07:29:57;;;;;;;3.73;3.50;;;;;;;;;;5032575;28;20906;-58
2023/04/25 07:32:23;;;;;;;3.37;3.27;;;;;;;;;;5032345;28;20854;-57
2023/04/25 07:34:49;;;;;;;3.10;3.00;;;;;;;;;;5032680;28;20498;-57
2023/04/25 07:37:15;;;;;;;3.03;2.93;;;;;;;;;;5032310;28;20454;-58
2023/04/25 07:39:41;;;;;;;3.17;3.07;;;;;;;;;;5032615;28;20462;-58
2023/04/25 07:42:08;;;;;;;2.80;2.73;;;;;;;;;;5032677;28;20415;-58
2023/04/25 07:44:38;;;;;;;5.70;4.30;;;;;;;;;;5032414;28;20416;-59
2023/04/25 07:47:06;;;;;;;4.47;4.10;;;;;;;;;;5032380;28;20553;-58
2023/04/25 07:49:37;;;;;;;4.53;3.33;;;;;;;;;;5032421;28;20412;-58
2023/04/25 07:52:05;;;;;;;2.80;2.77;;;;;;;;;;5032443;28;20439;-57
2023/04/25 07:54:32;;;;;;;3.77;3.47;;;;;;;;;;5032228;28;20412;-57
2023/04/25 07:56:58;;;;;;;3.70;3.50;;;;;;;;;;5031353;28;20443;-58
2023/04/25 07:59:24;;;;;;;3.07;2.97;;;;;;;;;;5034836;28;20423;-58
2023/04/25 08:01:51;;;;;;;3.23;3.03;;;;;;;;;;5036331;28;20447;-58
2023/04/25 08:04:17;;;;;;;3.23;2.77;;;;;;;;;;5036192;28;20962;-58
2023/04/25 08:06:43;;;;;;;3.63;2.90;;;;;;;;;;5036015;28;20982;-59
2023/04/25 08:09:09;;;;;;;2.80;2.80;;;;;;;;;;5036201;28;20451;-58
2023/04/25 08:11:35;;;;;;;3.03;2.93;;;;;;;;;;5036016;28;20800;-58
2023/04/25 08:14:01;;;;;;;3.60;3.40;;;;;;;;;;5036067;28;20486;-59
2023/04/25 08:16:28;;;;;;;2.47;2.47;;;;;;;;;;5035758;28;20482;-58
2023/04/25 08:18:54;;;;;;;3.60;3.43;;;;;;;;;;5035917;28;20408;-58
2023/04/25 08:21:20;;;;;;;2.80;2.80;;;;;;;;;;5035759;28;20416;-57
2023/04/25 08:23:48;;;;;;;3.73;3.43;;;;;;;;;;5035819;28;20502;-59
2023/04/25 08:26:14;;;;;;;2.70;2.60;;;;;;;;;;5035706;28;20415;-58
2023/04/25 08:28:40;;;;;;;5.23;3.50;;;;;;;;;;5034584;28;20446;-58
2023/04/25 08:31:06;;;;;;;3.60;3.37;;;;;;;;;;5035584;28;20415;-58
2023/04/25 08:33:32;;;;;;;3.07;3.00;;;;;;;;;;5035685;28;20418;-58
2023/04/25 08:36:00;;;;;;;3.37;3.17;;;;;;;;;;5035601;28;20518;-58
2023/04/25 08:38:26;;;;;;;3.63;3.43;;;;;;;;;;5035603;28;20422;-58
2023/04/25 08:40:52;;;;;;;4.10;3.90;;;;;;;;;;5035491;28;20495;-57
2023/04/25 08:43:21;;;;;;;4.53;4.40;;;;;;;;;;5035415;28;20930;-58
2023/04/25 08:45:51;;;;;;;3.57;3.47;;;;;;;;;;5034167;28;20467;-57
2023/04/25 08:48:18;;;;;;;5.13;4.83;;;;;;;;;;5035397;28;20966;-57
2023/04/25 08:50:54;;;;;;;5.97;4.60;;;;;;;;;;5035175;28;21188;-58
2023/04/25 08:53:26;;;;;;;4.23;3.93;;;;;;;;;;5035336;28;20472;-57
2023/04/25 08:55:53;;;;;;;4.80;4.50;;;;;;;;;;5035264;28;20523;-58
2023/04/25 08:58:19;;;;;;;4.43;4.03;;;;;;;;;;5035201;28;20481;-58
2023/04/25 09:00:46;;;;;;;3.80;3.60;;;;;;;;;;5035098;28;20416;-58
2023/04/25 09:03:15;;;;;;;4.23;3.90;;;;;;;;;;5035126;28;20919;-59
2023/04/25 09:05:41;;;;;;;4.63;4.10;;;;;;;;;;5035033;28;20444;-59
2023/04/25 09:08:07;;;;;;;4.67;4.40;;;;;;;;;;5034638;28;20480;-58
2023/04/25 09:10:33;;;;;;;4.27;4.03;;;;;;;;;;5034012;28;20436;-57
2023/04/25 09:13:10;;;;;;;5.03;4.83;;;;;;;;;;5034963;28;20514;-59
2023/04/25 09:15:55;;;;;;;5.47;5.17;;;;;;;;;;5034817;28;20927;-58
2023/04/25 09:18:31;;;;;;;5.77;4.30;;;;;;;;;;5034717;28;20446;-59
2023/04/25 09:20:59;;;;;;;4.80;4.60;;;;;;;;;;5034809;28;20922;-58
2023/04/25 09:23:25;;;;;;;3.60;3.40;;;;;;;;;;5034432;28;20498;-59
2023/04/25 09:25:53;;;;;;;4.53;4.23;;;;;;;;;;5034645;28;20454;-59
2023/04/25 09:28:27;;;;;;;23.93;13.43;;;;;;;;;;5034434;28;20503;-59
2023/04/25 09:31:00;;;;;;;19.37;9.67;;;;;;;;;;5034705;28;20451;-58
2023/04/25 09:33:32;;;;;;;58.77;22.27;;;;;;;;;;5034478;28;20972;-57
2023/04/25 09:36:04;;;;;;;8.43;3.83;;;;;;;;;;5034814;28;20417;-58
2023/04/25 09:38:41;;;;;;;3.30;3.10;;;;;;;;;;5034606;28;20444;-59
2023/04/25 09:41:07;;;;;;;3.23;2.47;;;;;;;;;;5034510;28;20400;-59
2023/04/25 09:43:32;;;;;;;3.40;3.20;;;;;;;;;;5034260;28;20446;-59
2023/04/25 09:46:00;;;;;;;3.03;2.93;;;;;;;;;;5034193;28;20472;-58
2023/04/25 09:48:26;;;;;;;2.50;2.40;;;;;;;;;;5034162;28;20475;-58
2023/04/25 09:51:12;;;;;;;2.97;2.43;;;;;;;;;;5034053;28;20424;-58
2023/04/25 09:53:39;;;;;;;3.00;2.80;;;;;;;;;;5033990;28;20921;-58
2023/04/25 09:56:06;;;;;;;2.63;2.53;;;;;;;;;;5034092;28;20805;-57
2023/04/25 09:58:35;;;;;;;2.97;2.33;;;;;;;;;;5033872;28;21037;-59
2023/04/25 10:01:02;;;;;;;2.67;2.63;;;;;;;;;;5033937;28;20796;-59
2023/04/25 10:03:32;;;;;;;3.03;2.83;;;;;;;;;;5033819;28;20434;-58
2023/04/25 10:06:00;;;;;;;1.80;1.80;;;;;;;;;;5034185;28;20411;-58
2023/04/25 10:08:30;;;;;;;2.43;2.20;;;;;;;;;;5033774;28;20475;-59
2023/04/25 10:10:57;;;;;;;2.37;2.27;;;;;;;;;;5033658;28;20416;-58
2023/04/25 10:13:23;;;;;;;5.43;4.93;;;;;;;;;;5033775;28;20931;-59
2023/04/25 10:15:50;;;;;;;3.10;3.00;;;;;;;;;;5033978;28;20447;-58
2023/04/25 10:18:18;;;;;;;11.03;4.40;;;;;;;;;;5033649;28;20872;-59
2023/04/25 10:20:44;;;;;;;5.67;5.03;;;;;;;;;;5033411;28;20898;-58
2023/04/25 10:23:14;;;;;;;4.03;3.70;;;;;;;;;;5032266;28;20447;-59
2023/04/25 10:25:42;;;;;;;4.07;3.90;;;;;;;;;;5033754;28;20436;-59
2023/04/25 10:28:08;;;;;;;8.20;5.67;;;;;;;;;;5033338;28;20486;-58
2023/04/25 10:30:34;;;;;;;4.80;4.20;;;;;;;;;;5033557;28;20412;-59
2023/04/25 10:33:00;;;;;;;5.17;4.50;;;;;;;;;;5033419;28;20707;-59
2023/04/25 10:35:27;;;;;;;4.03;3.80;;;;;;;;;;5033466;28;20435;-59
2023/04/25 10:38:03;;;;;;;3.30;3.20;;;;;;;;;;5033092;28;20455;-57
2023/04/25 10:40:29;;;;;;;3.70;3.50;;;;;;;;;;5033289;28;20415;-57
2023/04/25 10:42:56;;;;;;;5.23;4.50;;;;;;;;;;5033113;28;20434;-56
2023/04/25 10:45:22;;;;;;;3.90;3.73;;;;;;;;;;5033239;28;20918;-57
2023/04/25 10:47:48;;;;;;;3.83;3.63;;;;;;;;;;5031732;28;20532;-58
2023/04/25 10:50:18;;;;;;;3.40;3.30;;;;;;;;;;5033030;28;20431;-57
2023/04/25 10:52:46;;;;;;;3.40;3.30;;;;;;;;;;5033030;28;20478;-56
2023/04/25 10:55:15;;;;;;;6.47;5.87;;;;;;;;;;5032962;28;20467;-57
2023/04/25 10:57:47;;;;;;;4.03;3.93;;;;;;;;;;5032942;28;20431;-57
2023/04/25 11:00:17;;;;;;;2.80;2.70;;;;;;;;;;5033117;28;20477;-57
2023/04/25 11:02:45;;;;;;;5.60;2.70;;;;;;;;;;5032771;28;20808;-56
2023/04/25 11:05:16;;;;;;;2.50;2.50;;;;;;;;;;5032997;28;20416;-56
2023/04/25 11:07:52;;;;;;;2.43;2.33;;;;;;;;;;5033205;28;20481;-56
2023/04/25 11:10:19;;;;;;;2.70;2.50;;;;;;;;;;5031567;28;20454;-57
2023/04/25 11:12:47;;;;;;;2.33;2.23;;;;;;;;;;5031841;28;20419;-57
2023/04/25 11:15:13;;;;;;;2.83;2.50;;;;;;;;;;5031439;28;20434;-56
2023/04/25 11:17:40;;;;;;;2.27;2.27;;;;;;;;;;5032711;28;20773;-56
2023/04/25 11:20:08;;;;;;;2.80;2.70;;;;;;;;;;5032671;28;20415;-57
2023/04/25 11:22:34;;;;;;;2.20;1.93;;;;;;;;;;5032844;28;20450;-56
2023/04/25 11:25:05;;;;;;;2.73;2.53;;;;;;;;;;5032624;28;20875;-56
2023/04/25 11:27:36;;;;;;;2.77;2.67;;;;;;;;;;5032615;28;20467;-57
2023/04/25 11:30:14;;;;;;;2.40;2.40;;;;;;;;;;5031274;28;20434;-57
2023/04/25 11:32:41;;;;;;;2.83;2.50;;;;;;;;;;5031775;28;20423;-56
2023/04/25 11:35:08;;;;;;;7.63;3.07;;;;;;;;;;5032522;28;20837;-56
2023/04/25 11:37:34;;;;;;;1.70;1.70;;;;;;;;;;5031232;28;20423;-57
2023/04/25 11:40:00;;;;;;;2.17;2.07;;;;;;;;;;5032722;28;20497;-56
2023/04/25 11:42:26;;;;;;;2.10;2.00;;;;;;;;;;5032628;28;20507;-57
2023/04/25 11:44:52;;;;;;;1.70;1.60;;;;;;;;;;5031358;28;20444;-56
2023/04/25 11:47:18;;;;;;;1.77;1.67;;;;;;;;;;5032305;28;20466;-57
2023/04/25 11:49:44;;;;;;;2.30;2.20;;;;;;;;;;5032237;28;20431;-56
2023/04/25 11:52:10;;;;;;;1.37;1.37;;;;;;;;;;5030866;28;20949;-56
2023/04/25 11:54:37;;;;;;;1.00;1.00;;;;;;;;;;5031915;28;20443;-57
2023/04/25 11:57:03;;;;;;;0.60;0.60;;;;;;;;;;5032409;28;20477;-57
2023/04/25 11:59:29;;;;;;;0.80;0.80;;;;;;;;;;5032249;28;20942;-56
2023/04/25 12:01:57;;;;;;;0.70;0.70;;;;;;;;;;5032305;28;20423;-57
2023/04/25 12:04:26;;;;;;;0.90;0.90;;;;;;;;;;5032013;28;21017;-58
2023/04/25 12:06:52;;;;;;;1.00;1.00;;;;;;;;;;5032196;28;20846;-58
2023/04/25 12:09:21;;;;;;;1.37;1.37;;;;;;;;;;5032070;28;20436;-58
2023/04/25 12:11:53;;;;;;;2.80;1.83;;;;;;;;;;5032204;28;20423;-57
2023/04/25 12:14:26;;;;;;;1.83;1.73;;;;;;;;;;5032054;28;20950;-58
2023/04/25 12:16:53;;;;;;;1.50;1.50;;;;;;;;;;5032043;28;20780;-57
2023/04/25 12:19:20;;;;;;;1.47;1.47;;;;;;;;;;5032083;28;20804;-57
2023/04/25 12:21:46;;;;;;;1.70;1.70;;;;;;;;;;5032396;28;20420;-57
2023/04/25 12:24:19;;;;;;;3.17;1.40;;;;;;;;;;5032156;28;20513;-57
2023/04/25 12:26:48;;;;;;;1.30;1.30;;;;;;;;;;5030744;28;20984;-57
2023/04/25 12:29:26;;;;;;;1.47;1.47;;;;;;;;;;5031941;28;20739;-57
2023/04/25 12:31:55;;;;;;;1.40;1.30;;;;;;;;;;5032199;28;20394;-58
2023/04/25 12:34:22;;;;;;;1.60;1.60;;;;;;;;;;5031815;28;20466;-58
2023/04/25 12:36:48;;;;;;;2.90;1.97;;;;;;;;;;5031828;28;20918;-57
2023/04/25 12:39:15;;;;;;;12.70;7.73;;;;;;;;;;5031861;28;20462;-57
2023/04/25 12:41:41;;;;;;;6.87;2.47;;;;;;;;;;5032305;28;20430;-58
2023/04/25 12:44:07;;;;;;;2.10;2.07;;;;;;;;;;5033855;28;20410;-58
2023/04/25 12:46:33;;;;;;;2.40;2.00;;;;;;;;;;5035331;28;20585;-58
2023/04/25 12:49:00;;;;;;;2.13;2.03;;;;;;;;;;5033988;28;20496;-57
2023/04/25 12:51:27;;;;;;;2.50;2.40;;;;;;;;;;5035291;28;20430;-58
2023/04/25 12:53:53;;;;;;;2.30;2.30;;;;;;;;;;5033954;28;20929;-58
2023/04/25 12:56:19;;;;;;;2.10;2.00;;;;;;;;;;5033848;28;20529;-58
2023/04/25 12:58:46;;;;;;;3.97;2.50;;;;;;;;;;5035193;28;20492;-58
2023/04/25 13:01:13;;;;;;;1.67;1.67;;;;;;;;;;5035496;28;20450;-58
2023/04/25 13:03:40;;;;;;;1.90;1.90;;;;;;;;;;5035065;28;20471;-58
2023/04/25 13:06:06;;;;;;;2.33;2.13;;;;;;;;;;5035111;28;20821;-57
2023/04/25 13:08:32;;;;;;;2.87;1.93;;;;;;;;;;5034823;28;20515;-57
2023/04/25 13:11:00;;;;;;;1.93;1.83;;;;;;;;;;5034939;28;20461;-57
2023/04/25 13:13:28;;;;;;;1.57;1.47;;;;;;;;;;5033646;28;20426;-58
2023/04/25 13:15:54;;;;;;;1.50;1.40;;;;;;;;;;5034703;28;20855;-57
2023/04/25 13:18:20;;;;;;;2.10;1.53;;;;;;;;;;5034813;28;20972;-58
2023/04/25 13:20:46;;;;;;;1.50;1.50;;;;;;;;;;5034761;28;20501;-58
2023/04/25 13:23:12;;;;;;;2.20;0.90;;;;;;;;;;5034774;28;20459;-57
2023/04/25 13:25:38;;;;;;;1.40;1.30;;;;;;;;;;5034416;28;20447;-58
2023/04/25 13:28:04;;;;;;;1.60;1.50;;;;;;;;;;5033539;28;20456;-57
2023/04/25 13:30:30;;;;;;;1.40;1.40;;;;;;;;;;5034575;28;20469;-58
2023/04/25 13:32:57;;;;;;;1.30;1.30;;;;;;;;;;5034507;28;20405;-57
2023/04/25 13:35:23;;;;;;;1.10;1.10;;;;;;;;;;5034692;28;20436;-57
2023/04/25 13:37:51;;;;;;;1.53;1.43;;;;;;;;;;5034456;28;20417;-58
2023/04/25 13:40:17;;;;;;;2.13;1.40;;;;;;;;;;5033195;28;20949;-58
2023/04/25 13:42:45;;;;;;;0.97;0.97;;;;;;;;;;5034362;28;20835;-58
2023/04/25 13:45:11;;;;;;;1.10;1.10;;;;;;;;;;5034208;28;20445;-57
2023/04/25 13:47:37;;;;;;;1.20;1.20;;;;;;;;;;5034297;28;20499;-55
2023/04/25 13:50:05;;;;;;;1.07;1.07;;;;;;;;;;5034260;28;20448;-56
2023/04/25 13:52:31;;;;;;;1.10;1.10;;;;;;;;;;5034260;28;20786;-57
2023/04/25 13:54:57;;;;;;;1.30;1.30;;;;;;;;;;5033459;28;20426;-57
2023/04/25 13:57:23;;;;;;;1.00;1.00;;;;;;;;;;5034369;28;20840;-57
2023/04/25 13:59:49;;;;;;;1.30;1.20;;;;;;;;;;5033844;28;20437;-56
2023/04/25 14:02:15;;;;;;;2.20;1.20;;;;;;;;;;5033896;28;20468;-57
2023/04/25 14:04:41;;;;;;;4.10;3.63;;;;;;;;;;5033787;28;20417;-57
2023/04/25 14:07:08;;;;;;;7.43;2.50;;;;;;;;;;5032894;28;20826;-57
2023/04/25 14:09:34;;;;;;;3.00;2.80;;;;;;;;;;5033698;28;20443;-56
2023/04/25 14:12:01;;;;;;;8.80;5.53;;;;;;;;;;5032849;28;20532;-57
2023/04/25 14:14:27;;;;;;;13.47;9.33;;;;;;;;;;5033731;28;20753;-57
2023/04/25 14:16:54;;;;;;;21.33;12.13;;;;;;;;;;5033509;28;20427;-57
2023/04/25 14:19:20;;;;;;;16.67;5.23;;;;;;;;;;5033674;28;20427;-57
2023/04/25 14:21:46;;;;;;;5.10;3.10;;;;;;;;;;5033302;28;20795;-56
2023/04/25 14:24:14;;;;;;;28.93;17.47;;;;;;;;;;5033615;28;20416;-56
2023/04/25 14:26:41;;;;;;;26.67;10.57;;;;;;;;;;5033405;28;20538;-57
2023/04/25 14:29:08;;;;;;;21.80;11.60;;;;;;;;;;5033586;28;20400;-57
2023/04/25 14:31:34;;;;;;;8.90;3.70;;;;;;;;;;5033506;28;20404;-57
2023/04/25 14:34:00;;;;;;;3.50;2.93;;;;;;;;;;5033457;28;20766;-57
2023/04/25 14:36:26;;;;;;;26.67;10.10;;;;;;;;;;5033367;28;20903;-56
2023/04/25 14:38:55;;;;;;;2.30;2.10;;;;;;;;;;5032439;28;20829;-57
2023/04/25 14:41:25;;;;;;;4.33;3.27;;;;;;;;;;5033043;28;20458;-57